sensor_id;sensor_type;location;lat;lon;timestamp;temperature;humidity
20932;DHT22;10625;49.054;9.348;2022-11-02T16:59:23;6.60;99.90
20932;DHT22;10625;49.054;9.348;2022-11-02T17:01:56;6.60;99.90
20932;DHT22;10625;49.054;9.348;2022-11-02T17:04:23;6.70;99.90
20932;DHT22;10625;49.054;9.348;2022-11-02T17:06:54;6.70;99.90
20932;DHT22;10625;49.054;9.348;2022-11-02T17:09:27;6.20;99.90
20932;DHT22;10625;49.054;9.348;2022-11-02T17:11:58;6.50;99.90
20932;DHT22;10625;49.054;9.348;2022-11-02T17:14:26;6.60;99.90
20932;DHT22;10625;49.054;9.348;2022-11-02T17:17:00;6.20;99.90
20932;DHT22;10625;49.054;9.348;2022-11-02T17:19:42;6.20;99.90
20932;DHT22;10625;49.054;9.348;2022-11-02T17:22:20;6.20;99.90
20932;DHT22;10625;49.054;9.348;2022-11-02T17:24:40;6.20;99.90
20932;DHT22;10625;49.054;9.348;2022-11-02T17:27:29;6.10;99.90
20932;DHT22;10625;49.054;9.348;2022-11-02T17:29:58;6.00;99.90
20932;DHT22;10625;49.054;9.348;2022-11-02T17:32:26;6.00;99.90
20932;DHT22;10625;49.054;9.348;2022-11-02T17:34:57;6.00;99.90
20932;DHT22;10625;49.054;9.348;2022-11-02T17:37:27;6.00;99.90
20932;DHT22;10625;49.054;9.348;2022-11-02T17:39:59;6.00;99.90
20932;DHT22;10625;49.054;9.348;2022-11-02T17:42:25;5.90;99.90
20932;DHT22;10625;49.054;9.348;2022-11-02T17:45:23;5.80;99.90
20932;DHT22;10625;49.054;9.348;2022-11-02T17:47:51;5.80;99.90
20932;DHT22;10625;49.054;9.348;2022-11-02T17:50:18;5.80;99.90
20932;DHT22;10625;49.054;9.348;2022-11-02T17:52:46;5.80;99.90
20932;DHT22;10625;49.054;9.348;2022-11-02T17:55:17;5.70;99.90
20932;DHT22;10625;49.054;9.348;2022-11-02T17:57:45;5.60;99.90
20932;DHT22;10625;49.054;9.348;2022-11-02T18:00:14;5.60;99.90
20932;DHT22;10625;49.054;9.348;2022-11-02T18:02:50;5.60;99.90
20932;DHT22;10625;49.054;9.348;2022-11-02T18:05:26;5.60;99.90
20932;DHT22;10625;49.054;9.348;2022-11-02T18:07:56;5.50;99.90
20932;DHT22;10625;49.054;9.348;2022-11-02T18:10:38;5.40;99.90
20932;DHT22;10625;49.054;9.348;2022-11-02T18:13:14;5.50;99.90
20932;DHT22;10625;49.054;9.348;2022-11-02T18:15:39;5.40;99.90
20932;DHT22;10625;49.054;9.348;2022-11-02T18:18:07;5.40;99.90
20932;DHT22;10625;49.054;9.348;2022-11-02T18:20:35;5.50;99.90
20932;DHT22;10625;49.054;9.348;2022-11-02T18:23:03;5.50;99.90
20932;DHT22;10625;49.054;9.348;2022-11-02T18:25:32;5.50;99.90
20932;DHT22;10625;49.054;9.348;2022-11-02T18:28:00;5.50;99.90
20932;DHT22;10625;49.054;9.348;2022-11-02T18:30:28;5.50;99.90
20932;DHT22;10625;49.054;9.348;2022-11-02T18:32:59;5.50;99.90
20932;DHT22;10625;49.054;9.348;2022-11-02T18:35:28;5.50;99.90
20932;DHT22;10625;49.054;9.348;2022-11-02T18:37:55;5.40;99.90
20932;DHT22;10625;49.054;9.348;2022-11-02T18:40:23;5.40;99.90
20932;DHT22;10625;49.054;9.348;2022-11-02T18:42:50;5.40;99.90
20932;DHT22;10625;49.054;9.348;2022-11-02T18:45:18;5.40;99.90
20932;DHT22;10625;49.054;9.348;2022-11-02T18:47:45;5.30;99.90
20932;DHT22;10625;49.054;9.348;2022-11-02T18:50:13;5.30;99.90
20932;DHT22;10625;49.054;9.348;2022-11-02T18:52:40;5.20;99.90
20932;DHT22;10625;49.054;9.348;2022-11-02T18:55:10;5.30;99.90
20932;DHT22;10625;49.054;9.348;2022-11-02T18:57:37;5.20;99.90
20932;DHT22;10625;49.054;9.348;2022-11-02T19:00:05;5.20;99.90
20932;DHT22;10625;49.054;9.348;2022-11-02T19:02:33;5.20;99.90
20932;DHT22;10625;49.054;9.348;2022-11-02T19:05:00;5.20;99.90
20932;DHT22;10625;49.054;9.348;2022-11-02T19:07:28;5.30;99.90
20932;DHT22;10625;49.054;9.348;2022-11-02T19:10:14;5.20;99.90
20932;DHT22;10625;49.054;9.348;2022-11-02T19:12:41;5.30;99.90
20932;DHT22;10625;49.054;9.348;2022-11-02T19:15:09;5.20;99.90
20932;DHT22;10625;49.054;9.348;2022-11-02T19:17:36;5.20;99.90
20932;DHT22;10625;49.054;9.348;2022-11-02T19:20:05;5.20;99.90
20932;DHT22;10625;49.054;9.348;2022-11-02T19:22:33;5.10;99.90
20932;DHT22;10625;49.054;9.348;2022-11-02T19:25:01;5.10;99.90
20932;DHT22;10625;49.054;9.348;2022-11-02T19:27:28;5.10;99.90
20932;DHT22;10625;49.054;9.348;2022-11-02T19:29:56;5.10;99.90
20932;DHT22;10625;49.054;9.348;2022-11-02T19:32:24;5.10;99.90
20932;DHT22;10625;49.054;9.348;2022-11-02T19:34:51;5.10;99.90
20932;DHT22;10625;49.054;9.348;2022-11-02T19:37:19;5.10;99.90
20932;DHT22;10625;49.054;9.348;2022-11-02T19:39:46;5.10;99.90
20932;DHT22;10625;49.054;9.348;2022-11-02T19:42:14;5.00;99.90
20932;DHT22;10625;49.054;9.348;2022-11-02T19:44:41;4.90;99.90
20932;DHT22;10625;49.054;9.348;2022-11-02T19:47:09;5.00;99.90
20932;DHT22;10625;49.054;9.348;2022-11-02T19:49:37;5.00;99.90
20932;DHT22;10625;49.054;9.348;2022-11-02T19:52:04;5.00;99.90
20932;DHT22;10625;49.054;9.348;2022-11-02T19:54:32;5.00;99.90
20932;DHT22;10625;49.054;9.348;2022-11-02T19:56:59;4.90;99.90
20932;DHT22;10625;49.054;9.348;2022-11-02T19:59:27;4.90;99.90
20932;DHT22;10625;49.054;9.348;2022-11-02T20:01:55;4.90;99.90
20932;DHT22;10625;49.054;9.348;2022-11-02T20:04:23;4.90;99.90
20932;DHT22;10625;49.054;9.348;2022-11-02T20:06:50;4.90;99.90
20932;DHT22;10625;49.054;9.348;2022-11-02T20:09:18;4.90;99.90
20932;DHT22;10625;49.054;9.348;2022-11-02T20:11:46;4.90;99.90
20932;DHT22;10625;49.054;9.348;2022-11-02T20:14:15;4.90;99.90
20932;DHT22;10625;49.054;9.348;2022-11-02T20:16:43;4.90;99.90
20932;DHT22;10625;49.054;9.348;2022-11-02T20:19:10;4.80;99.90
20932;DHT22;10625;49.054;9.348;2022-11-02T20:21:38;4.80;99.90
20932;DHT22;10625;49.054;9.348;2022-11-02T20:24:06;4.80;99.90
20932;DHT22;10625;49.054;9.348;2022-11-02T20:26:35;4.80;99.90
20932;DHT22;10625;49.054;9.348;2022-11-02T20:29:04;4.80;99.90
20932;DHT22;10625;49.054;9.348;2022-11-02T20:31:35;4.80;99.90
20932;DHT22;10625;49.054;9.348;2022-11-02T20:34:05;4.80;99.90
20932;DHT22;10625;49.054;9.348;2022-11-02T20:36:32;4.80;99.90
20932;DHT22;10625;49.054;9.348;2022-11-02T20:39:00;4.80;99.90
20932;DHT22;10625;49.054;9.348;2022-11-02T20:41:29;4.70;99.90
20932;DHT22;10625;49.054;9.348;2022-11-02T20:43:57;4.80;99.90
